createdAt,value
2019-03-18T00:01:28.204Z,61.99
2019-03-18T00:04:15.837Z,62.24
2019-03-18T00:07:03.567Z,62.46
2019-03-18T00:09:51.091Z,61.19
2019-03-18T00:12:38.515Z,59.84
2019-03-18T00:15:26.145Z,61.35
2019-03-18T00:18:13.058Z,60.56
2019-03-18T00:21:00.684Z,59.92
2019-03-18T00:23:48.415Z,59.73
2019-03-18T00:26:35.760Z,60.46
2019-03-18T00:29:23.162Z,61.12
2019-03-18T00:32:10.894Z,61.88
2019-03-18T00:34:58.319Z,61.49
2019-03-18T00:37:45.853Z,62.18
2019-03-18T00:40:33.373Z,61.85
2019-03-18T00:43:21.107Z,61.13
2019-03-18T00:46:08.734Z,60.54
2019-03-18T00:48:56.058Z,60.60
2019-03-18T00:51:43.590Z,61.37
2019-03-18T00:54:31.416Z,61.42
2019-03-18T00:57:19.454Z,62.69
2019-03-18T01:00:09.743Z,61.72
2019-03-18T01:02:57.271Z,60.20
2019-03-18T01:05:44.699Z,60.03
2019-03-18T01:08:31.913Z,60.84
2019-03-18T01:11:19.342Z,61.46
2019-03-18T01:14:06.769Z,61.20
2019-03-18T01:16:53.958Z,61.25
2019-03-18T01:19:41.719Z,61.06
2019-03-18T01:22:29.242Z,61.36
2019-03-18T01:25:16.869Z,61.46
2019-03-18T01:28:04.403Z,61.87
2019-03-18T01:30:51.780Z,61.65
2019-03-18T01:33:39.446Z,62.44
2019-03-18T01:36:27.076Z,62.51
2019-03-18T01:39:15.015Z,62.79
2019-03-18T01:42:02.538Z,63.37
2019-03-18T01:44:50.375Z,62.42
2019-03-18T01:47:37.798Z,62.16
2019-03-18T01:50:25.732Z,61.24
2019-03-18T01:53:13.771Z,61.67
2019-03-18T01:56:01.193Z,62.35
2019-03-18T01:58:48.925Z,62.04
2019-03-18T02:01:36.454Z,61.94
2019-03-18T02:04:23.877Z,62.35
2019-03-18T02:07:10.993Z,62.26
2019-03-18T02:09:58.828Z,63.02
2019-03-18T02:12:46.046Z,63.15
2019-03-18T02:15:33.778Z,63.99
2019-03-18T02:18:20.999Z,64.13
2019-03-18T02:21:08.832Z,64.12
2019-03-18T02:23:56.566Z,63.00
2019-03-18T02:26:44.807Z,63.42
2019-03-18T02:29:32.538Z,63.44
2019-03-18T02:32:20.269Z,64.14
2019-03-18T02:35:08.208Z,63.23
2019-03-18T02:37:55.425Z,62.65
2019-03-18T02:40:43.361Z,62.36
2019-03-18T02:43:30.889Z,62.87
2019-03-18T02:46:18.518Z,63.62
2019-03-18T02:49:06.263Z,64.27
2019-03-18T02:51:54.287Z,63.42
2019-03-18T02:54:41.922Z,62.80
2019-03-18T02:57:29.749Z,63.18
2019-03-18T03:00:17.298Z,63.68
2019-03-18T03:03:05.413Z,63.60
2019-03-18T03:05:53.050Z,63.59
2019-03-18T03:08:40.573Z,63.25
2019-03-18T03:11:28.000Z,62.89
2019-03-18T03:14:15.421Z,61.77
2019-03-18T03:17:02.906Z,61.48
2019-03-18T03:19:50.575Z,61.55
2019-03-18T03:22:38.702Z,62.04
2019-03-18T03:25:25.949Z,61.93
2019-03-18T03:28:13.359Z,61.76
2019-03-18T03:31:01.025Z,63.25
2019-03-18T03:33:48.593Z,62.47
2019-03-18T03:36:35.741Z,61.49
2019-03-18T03:39:22.951Z,61.38
2019-03-18T03:42:10.579Z,60.84
2019-03-18T03:44:58.006Z,61.07
2019-03-18T03:47:45.765Z,61.37
2019-03-18T03:50:33.673Z,61.69
2019-03-18T03:53:21.404Z,61.90
2019-03-18T03:56:09.341Z,62.42
2019-03-18T03:58:57.143Z,61.99
2019-03-18T04:01:44.600Z,61.57
2019-03-18T04:04:32.675Z,61.85
2019-03-18T04:07:20.067Z,61.17
2019-03-18T04:10:10.155Z,61.01
2019-03-18T04:12:57.574Z,61.56
2019-03-18T04:15:45.102Z,61.14
2019-03-18T04:18:32.421Z,60.88
2019-03-18T04:21:19.744Z,61.56
2019-03-18T04:24:07.175Z,62.55
2019-03-18T04:26:54.897Z,63.33
2019-03-18T04:29:42.216Z,65.03
2019-03-18T04:32:29.881Z,65.43
2019-03-18T04:35:17.493Z,64.77
2019-03-18T04:38:04.696Z,64.49
2019-03-18T04:40:52.120Z,65.15
2019-03-18T04:43:40.671Z,64.32
2019-03-18T04:46:27.992Z,64.08
2019-03-18T04:49:15.420Z,64.51
2019-03-18T04:52:02.843Z,64.78
2019-03-18T04:54:50.058Z,63.49
2019-03-18T04:57:37.481Z,64.19
2019-03-18T05:00:24.804Z,64.33
2019-03-18T05:03:12.007Z,65.06
2019-03-18T05:05:59.241Z,64.95
2019-03-18T05:08:46.972Z,64.23
2019-03-18T05:11:34.397Z,64.30
2019-03-18T05:14:21.924Z,63.31
2019-03-18T05:17:09.368Z,64.58
2019-03-18T05:19:56.569Z,64.83
2019-03-18T05:22:44.197Z,65.07
2019-03-18T05:25:32.134Z,66.24
2019-03-18T05:28:19.660Z,65.25
2019-03-18T05:31:07.082Z,64.36
2019-03-18T05:33:54.405Z,64.52
2019-03-18T05:36:42.341Z,65.60
2019-03-18T05:39:29.563Z,66.13
2019-03-18T05:42:17.087Z,66.52
2019-03-18T05:45:05.744Z,65.66
2019-03-18T05:47:53.369Z,65.57
2019-03-18T05:50:40.796Z,65.08
2019-03-18T05:53:28.323Z,66.30
2019-03-18T05:56:16.562Z,67.61
2019-03-18T05:59:03.886Z,66.46
2019-03-18T06:01:51.626Z,65.30
2019-03-18T06:04:39.140Z,65.07
2019-03-18T06:07:26.974Z,65.46
2019-03-18T06:10:14.605Z,64.59
2019-03-18T06:13:02.030Z,64.86
2019-03-18T06:15:49.658Z,64.27
2019-03-18T06:18:37.180Z,64.53
2019-03-18T06:21:25.664Z,65.44
2019-03-18T06:24:13.071Z,65.25
2019-03-18T06:27:01.098Z,64.83
2019-03-18T06:29:48.581Z,63.68
2019-03-18T06:32:36.067Z,63.71
2019-03-18T06:35:23.775Z,64.27
2019-03-18T06:38:11.817Z,63.51
2019-03-18T06:40:59.342Z,64.03
2019-03-18T06:43:46.766Z,63.72
2019-03-18T06:46:34.085Z,63.79
2019-03-18T06:49:21.512Z,63.57
2019-03-18T06:52:09.035Z,62.59
2019-03-18T06:54:56.562Z,62.13
2019-03-18T06:57:44.016Z,62.36
2019-03-18T07:00:31.412Z,63.80
2019-03-18T07:03:18.937Z,63.99
2019-03-18T07:06:06.569Z,63.79
2019-03-18T07:08:57.173Z,63.05
2019-03-18T07:11:45.684Z,62.41
2019-03-18T07:14:34.572Z,62.77
2019-03-18T07:17:26.344Z,62.30
2019-03-18T07:20:14.761Z,62.19
2019-03-18T07:23:02.169Z,62.29
2019-03-18T07:25:50.405Z,61.88
2019-03-18T07:28:37.739Z,61.20
2019-03-18T07:31:25.366Z,60.21
2019-03-18T07:34:13.096Z,60.50
2019-03-18T07:37:01.523Z,59.87
2019-03-18T07:39:49.070Z,61.25
2019-03-18T07:42:36.807Z,61.14
2019-03-18T07:45:24.429Z,60.49
2019-03-18T07:48:12.636Z,60.78
2019-03-18T07:51:00.203Z,61.39
2019-03-18T07:53:48.238Z,60.81
2019-03-18T07:56:35.666Z,62.18
2019-03-18T07:59:23.204Z,64.43
2019-03-18T08:02:10.615Z,64.08
2019-03-18T08:04:58.036Z,63.35
2019-03-18T08:07:45.255Z,62.09
2019-03-18T08:10:32.590Z,60.81
2019-03-18T08:13:19.901Z,62.59
2019-03-18T08:16:07.326Z,61.56
2019-03-18T08:18:54.850Z,61.84
2019-03-18T08:21:43.416Z,61.36
2019-03-18T08:24:31.139Z,61.60
2019-03-18T08:27:18.969Z,61.62
2019-03-18T08:30:14.808Z,61.48
2019-03-18T08:33:02.014Z,61.49
2019-03-18T08:35:49.429Z,61.83
2019-03-18T08:38:36.956Z,62.63
2019-03-18T08:41:24.484Z,62.80
2019-03-18T08:44:12.016Z,63.55
2019-03-18T08:46:59.232Z,62.74
2019-03-18T08:49:46.757Z,64.02
2019-03-18T08:52:33.876Z,65.90
2019-03-18T08:55:21.808Z,63.72
2019-03-18T08:58:09.550Z,63.93
2019-03-18T09:00:56.965Z,63.89
2019-03-18T09:03:44.798Z,64.56
2019-03-18T09:06:32.655Z,63.82
2019-03-18T09:09:20.162Z,62.66
2019-03-18T09:12:07.684Z,61.93
2019-03-18T09:14:55.334Z,62.90
2019-03-18T09:17:42.940Z,62.26
2019-03-18T09:20:30.202Z,61.51
2019-03-18T09:23:17.687Z,61.66
2019-03-18T09:26:05.218Z,60.96
2019-03-18T09:28:53.048Z,59.36
2019-03-18T09:31:40.172Z,59.20
2019-03-18T09:34:27.704Z,59.65
2019-03-18T09:37:15.476Z,58.73
2019-03-18T09:40:02.932Z,58.45
2019-03-18T09:42:49.789Z,58.47
2019-03-18T09:45:36.911Z,58.31
2019-03-18T09:48:23.994Z,57.27
2019-03-18T09:51:11.315Z,56.36
2019-03-18T09:53:58.840Z,55.17
2019-03-18T09:56:46.470Z,55.92
2019-03-18T09:59:34.097Z,55.90
2019-03-18T10:02:21.725Z,56.83
2019-03-18T10:05:09.254Z,56.56
2019-03-18T10:07:56.271Z,56.20
2019-03-18T10:10:44.001Z,57.52
2019-03-18T10:13:31.525Z,57.86
2019-03-18T10:16:18.643Z,57.43
2019-03-18T10:19:06.069Z,60.48
2019-03-18T10:21:54.209Z,60.26
2019-03-18T10:24:41.532Z,58.06
2019-03-18T10:27:29.056Z,57.92
2019-03-18T10:30:16.890Z,57.94
2019-03-18T10:33:05.035Z,60.43
2019-03-18T10:35:54.210Z,61.36
2019-03-18T10:38:41.835Z,62.00
2019-03-18T10:41:29.453Z,61.59
2019-03-18T10:44:16.884Z,61.32
2019-03-18T10:47:04.607Z,62.44
2019-03-18T10:49:52.339Z,62.31
2019-03-18T10:52:39.886Z,60.18
2019-03-18T10:55:28.128Z,60.12
2019-03-18T10:58:17.948Z,58.32
2019-03-18T11:01:04.803Z,57.29
2019-03-18T11:03:52.127Z,56.99
2019-03-18T11:06:40.167Z,56.60
2019-03-18T11:09:27.601Z,54.72
2019-03-18T11:12:15.317Z,53.90
2019-03-18T11:15:02.846Z,53.39
2019-03-18T11:17:55.490Z,54.77
2019-03-18T11:20:43.023Z,53.85
2019-03-18T11:23:30.645Z,54.25
2019-03-18T11:26:18.276Z,52.67
2019-03-18T11:29:06.518Z,52.35
2019-03-18T11:31:54.615Z,49.69
2019-03-18T11:34:42.186Z,48.63
2019-03-18T11:37:29.507Z,49.77
2019-03-18T11:40:19.166Z,49.57
2019-03-18T11:43:07.025Z,50.22
2019-03-18T11:45:54.762Z,50.02
2019-03-18T11:48:42.484Z,50.26
2019-03-18T11:51:29.906Z,50.67
2019-03-18T11:54:17.908Z,50.65
2019-03-18T11:57:06.290Z,48.85
2019-03-18T11:59:54.127Z,49.30
2019-03-18T12:02:41.752Z,48.42
2019-03-18T12:05:29.957Z,48.16
2019-03-18T12:08:17.011Z,48.89
2019-03-18T12:11:04.433Z,48.52
2019-03-18T12:13:52.164Z,48.67
2019-03-18T12:16:39.693Z,47.71
2019-03-18T12:19:27.321Z,48.22
2019-03-18T12:22:14.846Z,48.16
2019-03-18T12:25:02.580Z,50.82
2019-03-18T12:27:50.420Z,49.73
2019-03-18T12:30:38.271Z,49.63
2019-03-18T12:33:25.669Z,48.48
2019-03-18T12:36:13.096Z,48.45
2019-03-18T12:39:00.517Z,47.58
2019-03-18T12:41:48.151Z,47.02
2019-03-18T12:44:35.573Z,46.45
2019-03-18T12:47:23.096Z,45.95
2019-03-18T12:50:13.701Z,45.39
2019-03-18T12:53:01.224Z,43.22
2019-03-18T12:55:48.547Z,44.11
2019-03-18T12:58:36.685Z,43.45
2019-03-18T13:01:24.011Z,44.36
2019-03-18T13:04:11.432Z,47.33
2019-03-18T13:06:59.470Z,47.03
2019-03-18T13:09:47.101Z,47.51
2019-03-18T13:12:34.327Z,46.62
2019-03-18T13:15:22.153Z,46.48
2019-03-18T13:18:09.575Z,46.80
2019-03-18T13:21:07.397Z,46.78
2019-03-18T13:23:46.881Z,46.55
2019-03-18T13:26:34.415Z,46.40
2019-03-18T13:29:22.040Z,44.12
2019-03-18T13:32:09.466Z,44.22
2019-03-18T13:34:56.892Z,44.38
2019-03-18T13:37:44.209Z,45.06
2019-03-18T13:40:31.631Z,44.58
2019-03-18T13:43:19.268Z,44.78
2019-03-18T13:46:06.788Z,43.50
2019-03-18T13:48:54.521Z,45.79
2019-03-18T13:51:42.354Z,43.68
2019-03-18T13:54:32.252Z,44.99
2019-03-18T13:57:18.840Z,44.85
2019-03-18T14:00:13.125Z,44.52
2019-03-18T14:03:00.753Z,44.36
2019-03-18T14:05:48.485Z,45.77
2019-03-18T14:08:36.116Z,47.15
2019-03-18T14:11:23.639Z,45.77
2019-03-18T14:14:11.065Z,44.83
2019-03-18T14:16:58.427Z,44.89
2019-03-18T14:19:46.219Z,44.13
2019-03-18T14:22:33.643Z,44.12
2019-03-18T14:25:21.273Z,43.48
2019-03-18T14:28:08.699Z,43.09
2019-03-18T14:30:56.223Z,44.03
2019-03-18T14:33:43.956Z,42.26
2019-03-18T14:36:31.481Z,43.97
2019-03-18T14:39:18.915Z,43.98
2019-03-18T14:42:06.844Z,48.16
2019-03-18T14:44:54.573Z,52.41
2019-03-18T14:47:41.742Z,52.46
2019-03-18T14:50:29.221Z,52.61
2019-03-18T14:53:17.093Z,52.22
2019-03-18T14:56:05.236Z,51.51
2019-03-18T14:58:52.783Z,51.71
2019-03-18T15:01:40.348Z,51.20
2019-03-18T15:04:27.776Z,51.39
2019-03-18T15:07:15.716Z,50.34
2019-03-18T15:10:06.706Z,50.42
2019-03-18T15:12:53.652Z,49.15
2019-03-18T15:15:41.059Z,47.85
2019-03-18T15:18:28.993Z,49.36
2019-03-18T15:21:16.518Z,49.14
2019-03-18T15:24:16.173Z,48.48
2019-03-18T15:26:53.208Z,47.63
2019-03-18T15:29:41.962Z,46.93
2019-03-18T15:32:29.492Z,45.30
2019-03-18T15:35:17.956Z,45.37
2019-03-18T15:38:05.770Z,44.55
2019-03-18T15:40:52.888Z,44.60
2019-03-18T15:43:40.516Z,44.28
2019-03-18T15:46:27.745Z,43.79
2019-03-18T15:49:15.369Z,43.09
2019-03-18T15:52:11.116Z,42.89
2019-03-18T15:54:54.116Z,42.51
2019-03-18T15:57:42.145Z,42.72
2019-03-18T16:00:31.195Z,42.37
2019-03-18T16:03:18.950Z,42.97
2019-03-18T16:06:06.668Z,42.37
2019-03-18T16:08:54.096Z,42.23
2019-03-18T16:11:41.723Z,42.37
2019-03-18T16:14:28.945Z,42.40
2019-03-18T16:17:16.364Z,41.73
2019-03-18T16:20:03.781Z,41.93
2019-03-18T16:22:51.212Z,41.85
2019-03-18T16:25:39.355Z,42.81
2019-03-18T16:28:26.630Z,42.21
2019-03-18T16:31:14.407Z,42.37
2019-03-18T16:34:01.836Z,42.08
2019-03-18T16:36:49.360Z,42.10
2019-03-18T16:39:36.784Z,42.04
2019-03-18T16:42:24.206Z,42.34
2019-03-18T16:45:13.550Z,42.47
2019-03-18T16:48:00.698Z,43.32
2019-03-18T16:50:48.427Z,42.76
2019-03-18T16:53:36.167Z,43.28
2019-03-18T16:56:23.816Z,43.49
2019-03-18T16:59:12.237Z,43.88
2019-03-18T17:01:59.558Z,44.29
2019-03-18T17:04:47.096Z,45.03
2019-03-18T17:07:35.140Z,46.09
2019-03-18T17:10:22.960Z,47.25
2019-03-18T17:13:10.796Z,48.70
2019-03-18T17:15:58.527Z,49.92
2019-03-18T17:18:46.293Z,49.68
2019-03-18T17:21:33.686Z,49.33
2019-03-18T17:24:21.727Z,48.88
2019-03-18T17:27:09.658Z,48.75
2019-03-18T17:29:57.396Z,49.00
2019-03-18T17:32:45.127Z,48.63
2019-03-18T17:35:32.958Z,48.63
2019-03-18T17:38:20.890Z,48.68
2019-03-18T17:41:09.593Z,49.10
2019-03-18T17:43:57.398Z,49.13
2019-03-18T17:46:44.945Z,48.99
2019-03-18T17:49:32.550Z,49.31
2019-03-18T17:52:20.183Z,49.42
2019-03-18T17:55:09.024Z,49.45
2019-03-18T17:57:56.758Z,49.63
2019-03-18T18:00:52.375Z,49.93
2019-03-18T18:03:39.990Z,50.00
2019-03-18T18:06:29.679Z,50.08
2019-03-18T18:09:17.609Z,50.11
2019-03-18T18:12:07.359Z,50.10
2019-03-18T18:14:54.598Z,50.42
2019-03-18T18:17:42.434Z,50.66
2019-03-18T18:20:31.914Z,50.81
2019-03-18T18:23:19.129Z,50.83
2019-03-18T18:26:06.654Z,50.85
2019-03-18T18:28:54.500Z,50.81
2019-03-18T18:31:41.823Z,50.57
2019-03-18T18:34:29.439Z,50.44
2019-03-18T18:37:16.553Z,50.67
2019-03-18T18:40:07.338Z,50.57
2019-03-18T18:42:54.891Z,50.54
2019-03-18T18:45:42.719Z,50.59
2019-03-18T18:48:30.453Z,50.70
2019-03-18T18:51:17.984Z,50.97
2019-03-18T18:54:05.911Z,51.08
2019-03-18T18:56:53.708Z,51.02
2019-03-18T18:59:41.479Z,51.36
2019-03-18T19:02:29.210Z,51.24
2019-03-18T19:05:17.610Z,51.13
2019-03-18T19:08:05.813Z,51.13
2019-03-18T19:10:53.321Z,51.19
2019-03-18T19:13:40.441Z,51.31
2019-03-18T19:16:28.581Z,51.82
2019-03-18T19:19:16.417Z,51.89
2019-03-18T19:22:04.148Z,52.92
2019-03-18T19:24:51.776Z,52.59
2019-03-18T19:27:39.508Z,52.46
2019-03-18T19:30:27.241Z,52.15
2019-03-18T19:33:14.969Z,52.31
2019-03-18T19:36:02.515Z,52.00
2019-03-18T19:38:49.714Z,52.22
2019-03-18T19:41:37.138Z,52.12
2019-03-18T19:44:24.870Z,52.09
2019-03-18T19:47:12.399Z,52.70
2019-03-18T19:50:00.026Z,52.46
2019-03-18T19:52:47.961Z,52.48
2019-03-18T19:55:35.693Z,52.46
2019-03-18T19:58:23.538Z,52.44
2019-03-18T20:01:11.264Z,52.44
2019-03-18T20:03:59.816Z,52.37
2019-03-18T20:06:47.136Z,52.45
2019-03-18T20:09:34.556Z,52.63
2019-03-18T20:12:21.672Z,52.84
2019-03-18T20:15:11.761Z,52.65
2019-03-18T20:17:59.083Z,52.56
2019-03-18T20:20:46.708Z,52.61
2019-03-18T20:23:34.439Z,52.43
2019-03-18T20:26:21.761Z,52.59
2019-03-18T20:29:09.191Z,52.35
2019-03-18T20:31:56.610Z,52.27
2019-03-18T20:34:43.625Z,51.94
2019-03-18T20:37:31.460Z,52.24
2019-03-18T20:40:19.296Z,52.31
2019-03-18T20:43:06.613Z,52.65
2019-03-18T20:45:54.451Z,52.96
2019-03-18T20:48:41.973Z,52.87
2019-03-18T20:51:29.503Z,52.93
2019-03-18T20:54:16.621Z,53.02
2019-03-18T20:57:04.661Z,53.19
2019-03-18T20:59:52.432Z,53.32
2019-03-18T21:02:39.916Z,53.48
2019-03-18T21:05:27.650Z,53.47
2019-03-18T21:08:15.069Z,53.63
2019-03-18T21:11:03.005Z,53.63
2019-03-18T21:13:57.121Z,53.59
2019-03-18T21:16:39.800Z,53.62
2019-03-18T21:19:27.429Z,53.57
2019-03-18T21:22:15.160Z,53.54
2019-03-18T21:25:02.795Z,53.52
2019-03-18T21:27:51.648Z,53.52
2019-03-18T21:30:39.693Z,53.69
2019-03-18T21:33:27.423Z,53.63
2019-03-18T21:36:28.258Z,53.60
2019-03-18T21:39:07.486Z,53.66
2019-03-18T21:41:55.116Z,53.64
2019-03-18T21:44:42.541Z,53.86
2019-03-18T21:47:30.479Z,53.72
2019-03-18T21:50:18.006Z,53.77
2019-03-18T21:53:05.577Z,53.98
2019-03-18T21:55:53.880Z,54.08
2019-03-18T21:58:41.298Z,54.14
2019-03-18T22:01:28.724Z,54.29
2019-03-18T22:04:15.947Z,54.69
2019-03-18T22:07:04.802Z,54.56
2019-03-18T22:09:52.648Z,54.50
2019-03-18T22:12:39.853Z,54.36
2019-03-18T22:15:27.689Z,54.31
2019-03-18T22:18:15.315Z,54.27
2019-03-18T22:21:02.573Z,54.63
2019-03-18T22:23:50.269Z,54.72
2019-03-18T22:26:37.282Z,54.71
2019-03-18T22:29:24.939Z,54.74
2019-03-18T22:32:12.375Z,54.75
2019-03-18T22:35:00.326Z,54.62
2019-03-18T22:37:47.900Z,54.66
2019-03-18T22:40:36.059Z,54.69
2019-03-18T22:43:23.983Z,54.84
2019-03-18T22:46:11.399Z,54.78
2019-03-18T22:48:59.240Z,54.65
2019-03-18T22:51:46.964Z,54.44
2019-03-18T22:54:34.800Z,54.27
2019-03-18T22:57:22.530Z,54.20
2019-03-18T23:00:18.000Z,54.19
2019-03-18T23:03:05.798Z,54.27
2019-03-18T23:05:53.571Z,54.38
2019-03-18T23:08:41.011Z,54.51
2019-03-18T23:11:28.361Z,54.70
2019-03-18T23:14:15.846Z,54.68
2019-03-18T23:17:03.516Z,54.58
2019-03-18T23:19:51.043Z,54.55
2019-03-18T23:22:38.471Z,54.71
2019-03-18T23:25:25.786Z,55.12
2019-03-18T23:28:13.310Z,55.20
2019-03-18T23:31:01.147Z,55.07
2019-03-18T23:33:48.877Z,55.23
2019-03-18T23:36:36.301Z,55.26
2019-03-18T23:39:23.633Z,55.47
2019-03-18T23:42:10.723Z,55.68
2019-03-18T23:44:58.264Z,55.67
2019-03-18T23:47:45.791Z,55.42
2019-03-18T23:50:32.702Z,55.20
2019-03-18T23:53:19.720Z,55.14
2019-03-18T23:56:07.244Z,55.18
2019-03-18T23:58:54.672Z,55.13
